Time;durP1;ratioP1;P1;durP2;ratioP2;P2;SDS_P1;SDS_P2;PMS_P1;PMS_P2;Temp;Humidity;BMP_temperature;BMP_pressure;BME280_temperature;BME280_humidity;BME280_pressure;Samples;Min_cycle;Max_cycle;Signal;HPM_P1;HPM_P2
2022/03/22 00:00:09;;;;;;;21.75;12.30;;;8.70;51.50;;;;;;5072067;28;20549;-90
2022/03/22 00:05:57;;;;;;;21.77;12.93;;;8.60;52.70;;;;;;5052674;28;20052;-91
2022/03/22 00:08:23;;;;;;;21.25;12.82;;;8.50;53.20;;;;;;5052659;28;20432;-90
2022/03/22 00:10:49;;;;;;;22.77;12.80;;;8.50;52.90;;;;;;5055459;28;20021;-89
2022/03/22 00:13:28;;;;;;;18.10;11.38;;;8.50;53.60;;;;;;5063892;28;20455;-90
2022/03/22 00:15:55;;;;;;;22.48;11.25;;;8.40;56.20;;;;;;5052676;28;20396;-90
2022/03/22 00:18:21;;;;;;;21.00;11.93;;;8.30;58.20;;;;;;5052515;28;20432;-90
2022/03/22 00:21:10;;;;;;;19.83;11.45;;;8.20;62.40;;;;;;5066480;28;20025;-90
2022/03/22 00:23:35;;;;;;;28.98;13.27;;;8.00;68.00;;;;;;5054178;28;20024;-90
2022/03/22 00:26:03;;;;;;;20.15;12.05;;;7.80;71.50;;;;;;5072303;28;20029;-90
2022/03/22 00:28:30;;;;;;;20.90;12.48;;;7.70;77.10;;;;;;5074329;28;20016;-90
2022/03/22 00:31:19;;;;;;;19.75;12.18;;;7.50;80.20;;;;;;5075279;28;20029;-90
2022/03/22 00:33:44;;;;;;;31.88;12.35;;;7.30;85.30;;;;;;5064094;28;20025;-90
2022/03/22 00:36:45;;;;;;;17.65;11.18;;;7.10;92.80;;;;;;5056300;28;20489;-90
2022/03/22 00:39:11;;;;;;;21.98;12.13;;;6.90;95.80;;;;;;5038488;28;20122;-90
2022/03/22 00:41:37;;;;;;;23.90;13.13;;;6.60;96.50;;;;;;5056087;28;20021;-90
2022/03/22 00:44:03;;;;;;;20.55;12.65;;;6.40;99.90;;;;;;5055707;28;20017;-90
2022/03/22 00:46:28;;;;;;;20.13;11.98;;;6.20;99.90;;;;;;5056049;28;20481;-90
2022/03/22 00:48:54;;;;;;;28.45;13.73;;;6.00;99.90;;;;;;5056138;28;20021;-90
2022/03/22 00:52:06;;;;;;;25.35;13.48;;;5.90;99.90;;;;;;5063852;28;20021;-90
2022/03/22 00:54:33;;;;;;;21.02;12.57;;;5.70;99.90;;;;;;5059128;28;20453;-90
2022/03/22 00:57:02;;;;;;;21.60;11.82;;;5.60;99.90;;;;;;5055919;28;20497;-90
2022/03/22 01:02:16;;;;;;;23.08;13.85;;;5.30;99.90;;;;;;5055926;28;20083;-90
2022/03/22 01:04:43;;;;;;;23.08;13.73;;;5.20;99.90;;;;;;5065572;28;20055;-89
2022/03/22 01:07:08;;;;;;;24.13;13.48;;;5.10;99.90;;;;;;5058128;28;20044;-90
2022/03/22 01:09:38;;;;;;;24.52;14.32;;;4.90;99.90;;;;;;5075696;28;20025;-89
2022/03/22 01:12:04;;;;;;;26.77;15.57;;;4.90;99.90;;;;;;5074131;28;20033;-89
2022/03/22 01:14:38;;;;;;;29.27;15.98;;;4.90;99.90;;;;;;5075409;28;20093;-90
2022/03/22 01:17:06;;;;;;;25.38;15.25;;;4.70;99.90;;;;;;5057589;28;20537;-90
2022/03/22 01:19:32;;;;;;;22.67;13.93;;;4.70;99.90;;;;;;5067651;28;20025;-90
2022/03/22 01:22:38;;;;;;;29.00;15.88;;;4.60;99.90;;;;;;5055448;28;20064;-90
2022/03/22 01:25:09;;;;;;;27.58;15.27;;;4.50;99.90;;;;;;5055409;28;20412;-90
2022/03/22 01:27:36;;;;;;;24.42;14.63;;;4.50;99.90;;;;;;5037142;28;20027;-90
2022/03/22 01:30:19;;;;;;;27.13;14.63;;;4.50;99.90;;;;;;5044773;28;20040;-90
2022/03/22 01:32:48;;;;;;;26.85;14.70;;;4.40;99.90;;;;;;5086590;28;20492;-90
2022/03/22 01:35:22;;;;;;;29.20;15.00;;;4.30;99.90;;;;;;5095238;28;20032;-90
2022/03/22 01:37:54;;;;;;;31.60;15.32;;;4.20;99.90;;;;;;5061669;28;20131;-90
2022/03/22 01:40:23;;;;;;;26.58;15.18;;;4.20;99.90;;;;;;5056428;28;20024;-89
2022/03/22 01:42:53;;;;;;;27.80;14.38;;;4.10;99.90;;;;;;5086241;28;20438;-88
2022/03/22 01:45:19;;;;;;;25.38;13.13;;;4.10;99.90;;;;;;5095094;28;20089;-89
2022/03/22 01:47:47;;;;;;;26.90;15.07;;;4.10;99.90;;;;;;5093838;28;20031;-89
2022/03/22 01:50:30;;;;;;;22.20;13.18;;;4.00;99.90;;;;;;5095136;28;20043;-89
2022/03/22 01:52:58;;;;;;;24.35;14.65;;;4.10;99.90;;;;;;5076678;28;20016;-89
2022/03/22 01:55:29;;;;;;;25.95;14.50;;;4.00;99.90;;;;;;5093904;28;20039;-89
2022/03/22 01:57:56;;;;;;;27.63;14.57;;;3.90;99.90;;;;;;5091034;28;20074;-89
2022/03/22 02:00:45;;;;;;;25.70;14.95;;;3.90;99.90;;;;;;5056656;28;20031;-89
2022/03/22 02:05:57;;;;;;;;;;;3.70;99.90;;;;;;5095489;28;20031;-90
2022/03/22 02:08:30;;;;;;;28.67;15.05;;;3.60;99.90;;;;;;5081464;28;19908;-89
2022/03/22 02:10:59;;;;;;;28.98;16.55;;;3.50;99.90;;;;;;5074565;28;20392;-89
2022/03/22 02:13:25;;;;;;;26.88;14.70;;;3.50;99.90;;;;;;5056051;28;20075;-89
2022/03/22 02:16:04;;;;;;;31.65;14.90;;;3.40;99.90;;;;;;5074456;28;20468;-89
2022/03/22 02:18:29;;;;;;;30.02;16.17;;;3.40;99.90;;;;;;5074479;28;20109;-89
2022/03/22 02:21:05;;;;;;;31.98;16.67;;;3.30;99.90;;;;;;5074220;28;20103;-88
2022/03/22 02:23:33;;;;;;;26.55;15.40;;;3.30;99.90;;;;;;5058789;28;20028;-89
2022/03/22 02:25:59;;;;;;;31.10;17.38;;;3.20;99.90;;;;;;5036294;28;20060;-89
2022/03/22 02:28:45;;;;;;;30.40;16.73;;;3.20;99.90;;;;;;5053979;28;20491;-90
2022/03/22 02:31:11;;;;;;;32.38;15.90;;;3.20;99.90;;;;;;5054164;28;20029;-89
2022/03/22 02:33:43;;;;;;;28.23;17.02;;;3.20;99.90;;;;;;5036209;28;20032;-89
2022/03/22 02:36:09;;;;;;;34.97;16.90;;;3.20;99.90;;;;;;5054093;28;20025;-89
2022/03/22 02:38:34;;;;;;;30.83;17.10;;;3.10;99.90;;;;;;5053361;28;20128;-89
2022/03/22 02:41:05;;;;;;;27.13;15.85;;;3.10;99.90;;;;;;5076886;28;20016;-89
2022/03/22 02:43:31;;;;;;;24.48;15.30;;;3.10;99.90;;;;;;5093767;28;20508;-88
2022/03/22 02:46:03;;;;;;;32.83;17.42;;;3.10;99.90;;;;;;5094138;28;20036;-89
2022/03/22 02:48:29;;;;;;;27.35;14.70;;;3.10;99.90;;;;;;5082371;28;20556;-89
2022/03/22 02:50:54;;;;;;;29.65;16.48;;;3.00;99.90;;;;;;5073101;28;20100;-90
2022/03/22 02:53:22;;;;;;;25.95;14.73;;;3.00;99.90;;;;;;5073687;28;20396;-89
2022/03/22 02:55:47;;;;;;;32.60;15.00;;;3.30;99.90;;;;;;5073727;28;20020;-88
2022/03/22 02:58:13;;;;;;;40.60;15.27;;;3.60;99.90;;;;;;5079365;28;20028;-88
2022/03/22 03:00:43;;;;;;;26.20;14.73;;;4.20;99.90;;;;;;5093946;28;20027;-89
2022/03/22 03:03:08;;;;;;;25.17;14.77;;;4.80;99.90;;;;;;5087523;28;20020;-88
2022/03/22 03:05:53;;;;;;;25.05;13.65;;;5.20;99.90;;;;;;5073356;28;20377;-88
2022/03/22 03:08:19;;;;;;;26.73;14.27;;;5.70;99.90;;;;;;5073548;28;20357;-89
2022/03/22 03:10:50;;;;;;;34.72;15.35;;;6.10;99.90;;;;;;5055522;28;20107;-89
2022/03/22 03:16:25;;;;;;;33.53;15.65;;;6.40;99.90;;;;;;5081825;28;20471;-87
2022/03/22 03:18:51;;;;;;;24.20;13.93;;;6.60;98.20;;;;;;5093450;28;20052;-89
2022/03/22 03:21:24;;;;;;;26.27;13.80;;;6.80;96.80;;;;;;5075776;28;20024;-89
2022/03/22 03:23:50;;;;;;;22.30;13.13;;;6.90;96.50;;;;;;5093432;28;20446;-90
2022/03/22 03:26:30;;;;;;;28.23;14.48;;;7.00;94.30;;;;;;5075157;28;20112;-90
2022/03/22 03:28:55;;;;;;;25.88;14.07;;;7.10;92.70;;;;;;5093138;28;20024;-89
2022/03/22 03:31:21;;;;;;;28.63;14.13;;;7.10;92.40;;;;;;5078432;28;20024;-89
2022/03/22 03:33:54;;;;;;;27.85;15.55;;;7.20;91.40;;;;;;5073051;28;20025;-90
2022/03/22 03:36:20;;;;;;;33.42;18.30;;;7.20;89.90;;;;;;5072981;28;20095;-89
2022/03/22 03:38:46;;;;;;;35.85;18.58;;;7.20;89.90;;;;;;5071100;28;20075;-90
2022/03/22 03:47:03;;;;;;;34.63;16.20;;;7.20;93.00;;;;;;5065908;28;20448;-90
2022/03/22 03:47:05;;;;;;;27.02;14.77;;;7.20;91.40;;;;;;5032541;28;20044;-90
2022/03/22 03:49:37;;;;;;;23.35;13.95;;;7.10;94.70;;;;;;5065621;28;20032;-88
2022/03/22 03:52:29;;;;;;;29.23;14.85;;;7.00;95.70;;;;;;5068234;28;20449;-90
2022/03/22 03:54:56;;;;;;;25.58;14.40;;;6.90;98.80;;;;;;5053011;28;20468;-90
2022/03/22 03:57:23;;;;;;;26.30;12.85;;;6.80;99.60;;;;;;5052527;28;20024;-89
2022/03/22 03:59:57;;;;;;;30.08;13.65;;;6.70;99.90;;;;;;5034793;28;20027;-90
2022/03/22 04:02:23;;;;;;;22.40;13.63;;;6.60;99.90;;;;;;5057085;28;20053;-90
2022/03/22 04:04:53;;;;;;;33.97;13.00;;;6.60;99.90;;;;;;5052806;28;20071;-89
2022/03/22 04:07:21;;;;;;;22.42;12.93;;;6.50;99.90;;;;;;5052647;28;20036;-90
2022/03/22 04:10:28;;;;;;;25.27;12.77;;;6.60;99.00;;;;;;5052575;28;20465;-89
2022/03/22 04:12:54;;;;;;;24.42;12.98;;;6.60;98.20;;;;;;5052108;28;20358;-89
2022/03/22 04:15:20;;;;;;;24.08;13.43;;;6.60;99.90;;;;;;5053215;28;20146;-90
2022/03/22 04:17:49;;;;;;;23.13;13.43;;;6.60;99.50;;;;;;5054442;28;20032;-90
2022/03/22 04:20:17;;;;;;;23.20;12.65;;;6.60;98.50;;;;;;5054383;28;20361;-87
2022/03/22 04:22:45;;;;;;;24.45;12.65;;;6.70;97.60;;;;;;5054457;28;20163;-89
2022/03/22 04:25:13;;;;;;;23.20;12.88;;;6.80;94.00;;;;;;5053384;28;20028;-89
2022/03/22 04:33:14;;;;;;;25.50;13.82;;;7.30;88.50;;;;;;5052358;28;20079;-88
2022/03/22 04:35:56;;;;;;;24.13;13.07;;;7.40;84.80;;;;;;5061153;28;20028;-89
2022/03/22 04:38:28;;;;;;;24.35;13.57;;;7.60;84.60;;;;;;5070416;28;20132;-90
2022/03/22 04:40:54;;;;;;;22.75;12.70;;;7.60;80.00;;;;;;5054501;28;20025;-90
2022/03/22 04:43:19;;;;;;;24.33;14.88;;;7.60;79.70;;;;;;5071767;28;20029;-90
2022/03/22 04:45:52;;;;;;;23.48;12.75;;;7.60;81.50;;;;;;5056164;28;20389;-90
2022/03/22 04:48:18;;;;;;;18.70;11.48;;;7.60;90.70;;;;;;5052170;28;20413;-90
2022/03/22 04:50:45;;;;;;;24.95;13.30;;;7.40;93.70;;;;;;5052068;28;20017;-90
2022/03/22 04:57:07;;;;;;;19.45;11.23;;;7.00;99.90;;;;;;5052200;28;20032;-90
2022/03/22 04:59:02;;;;;;;;;;;6.70;99.90;;;;;;5034544;28;20033;-90
2022/03/22 05:01:36;;;;;;;18.90;12.07;;;6.40;99.90;;;;;;5051959;28;19905;-89
2022/03/22 05:04:02;;;;;;;16.27;11.05;;;6.20;99.90;;;;;;5033990;28;20029;-89
2022/03/22 05:06:35;;;;;;;23.05;11.63;;;6.00;99.90;;;;;;5034017;28;20058;-89
2022/03/22 05:09:02;;;;;;;21.13;12.30;;;5.90;99.90;;;;;;5052314;28;20014;-90
2022/03/22 05:11:34;;;;;;;23.90;11.73;;;5.70;99.90;;;;;;5033690;28;20363;-89
2022/03/22 05:14:00;;;;;;;23.58;13.02;;;5.50;99.90;;;;;;5013968;28;20025;-90
2022/03/22 05:16:26;;;;;;;20.95;13.40;;;5.30;99.90;;;;;;5052595;28;20043;-90
2022/03/22 05:19:06;;;;;;;23.17;13.02;;;5.20;99.90;;;;;;5055675;28;20104;-90
2022/03/22 05:21:32;;;;;;;21.88;12.85;;;5.00;99.90;;;;;;5037543;28;20035;-90
2022/03/22 05:24:03;;;;;;;26.20;13.20;;;4.90;99.90;;;;;;5037567;28;20385;-88
2022/03/22 05:26:28;;;;;;;22.40;13.35;;;4.80;99.90;;;;;;5049721;28;20395;-90
2022/03/22 05:29:19;;;;;;;21.45;13.70;;;4.70;99.90;;;;;;5055947;28;20021;-90
2022/03/22 05:31:45;;;;;;;24.77;13.18;;;4.50;99.90;;;;;;5039615;28;20017;-90
2022/03/22 05:34:12;;;;;;;23.50;12.73;;;4.40;99.90;;;;;;5058287;28;20017;-90
2022/03/22 05:36:37;;;;;;;22.98;13.65;;;4.30;99.90;;;;;;5047827;28;20029;-90
2022/03/22 05:39:03;;;;;;;28.65;13.60;;;4.30;99.90;;;;;;5078815;28;20562;-89
2022/03/22 05:41:35;;;;;;;25.55;14.02;;;4.20;99.90;;;;;;5075193;28;20112;-90
2022/03/22 05:44:01;;;;;;;23.98;13.10;;;4.10;99.90;;;;;;5074655;28;20128;-90
2022/03/22 05:46:26;;;;;;;30.30;14.45;;;4.00;99.90;;;;;;5056874;28;20115;-90
2022/03/22 05:48:54;;;;;;;22.40;13.13;;;4.00;99.90;;;;;;5073838;28;20043;-91
2022/03/22 05:51:19;;;;;;;20.30;11.85;;;3.90;99.90;;;;;;5074496;28;20380;-91
2022/03/22 05:53:51;;;;;;;23.00;13.63;;;3.90;99.90;;;;;;5074974;28;20033;-90
2022/03/22 05:56:17;;;;;;;23.73;11.88;;;3.90;99.90;;;;;;5093910;28;20365;-89
2022/03/22 05:59:06;;;;;;;21.92;12.32;;;3.90;99.90;;;;;;5076475;28;20035;-90
2022/03/22 06:01:31;;;;;;;23.58;13.50;;;3.90;99.90;;;;;;5086515;28;20028;-90
2022/03/22 06:03:58;;;;;;;21.75;12.20;;;3.90;99.90;;;;;;5073556;28;20036;-91
2022/03/22 06:06:40;;;;;;;27.08;13.55;;;4.00;99.90;;;;;;5082137;28;20040;-91
2022/03/22 06:09:06;;;;;;;28.05;13.23;;;3.90;99.90;;;;;;5037051;28;20421;-91
2022/03/22 06:11:35;;;;;;;22.90;12.63;;;4.00;99.90;;;;;;5054826;28;20029;-91
2022/03/22 06:14:04;;;;;;;22.90;13.07;;;4.00;99.90;;;;;;5054304;28;20473;-91
2022/03/22 06:16:32;;;;;;;25.52;13.95;;;4.10;99.90;;;;;;5036952;28;20385;-91
2022/03/22 06:18:58;;;;;;;23.45;13.80;;;4.10;99.90;;;;;;5036695;28;20051;-91
2022/03/22 06:21:27;;;;;;;24.65;13.93;;;4.10;99.90;;;;;;5066626;28;20040;-91
2022/03/22 06:23:53;;;;;;;21.77;13.13;;;4.20;99.90;;;;;;5073144;28;20119;-91
2022/03/22 06:26:28;;;;;;;22.58;13.18;;;4.20;99.90;;;;;;5072960;28;20168;-91
2022/03/22 06:28:53;;;;;;;24.48;14.15;;;4.30;99.90;;;;;;5072781;28;20025;-91
2022/03/22 06:31:27;;;;;;;27.05;14.40;;;4.30;99.90;;;;;;5073355;28;20035;-90
2022/03/22 06:33:53;;;;;;;29.20;15.60;;;4.40;99.90;;;;;;5056593;28;20046;-91
2022/03/22 06:36:31;;;;;;;28.98;14.20;;;4.50;99.90;;;;;;5074420;28;20028;-91
2022/03/22 06:38:56;;;;;;;20.58;12.88;;;4.50;99.90;;;;;;5072910;28;20049;-90
2022/03/22 06:41:22;;;;;;;23.77;13.20;;;4.70;99.90;;;;;;5072986;28;20039;-90
2022/03/22 06:43:48;;;;;;;21.70;12.68;;;4.70;99.90;;;;;;5055959;28;20484;-91
2022/03/22 06:46:13;;;;;;;24.65;12.35;;;4.80;99.90;;;;;;5071136;28;20090;-91
2022/03/22 06:48:44;;;;;;;23.25;13.88;;;5.00;99.90;;;;;;5036223;28;20124;-91
2022/03/22 06:51:09;;;;;;;21.02;13.10;;;5.10;99.90;;;;;;5036534;28;20017;-90
2022/03/22 06:53:36;;;;;;;21.15;12.40;;;5.30;99.90;;;;;;5053841;28;20079;-91
2022/03/22 06:56:01;;;;;;;27.98;14.13;;;5.40;99.90;;;;;;5053879;28;20436;-91
2022/03/22 06:58:30;;;;;;;34.72;17.35;;;5.50;99.90;;;;;;5052397;28;20037;-91
2022/03/22 07:00:56;;;;;;;29.38;15.00;;;5.60;99.90;;;;;;5036074;28;20366;-91
2022/03/22 07:03:24;;;;;;;27.27;14.68;;;5.80;99.90;;;;;;5052704;28;20040;-91
2022/03/22 07:05:50;;;;;;;27.17;14.27;;;5.80;99.90;;;;;;5053737;28;20036;-91
2022/03/22 07:08:19;;;;;;;27.52;15.20;;;5.90;99.90;;;;;;5053641;28;20024;-90
2022/03/22 07:11:47;;;;;;;27.00;14.85;;;6.00;99.90;;;;;;5053518;28;20025;-90
2022/03/22 07:13:38;;;;;;;28.40;14.45;;;6.10;99.90;;;;;;5052934;28;20067;-91
2022/03/22 07:16:04;;;;;;;43.35;20.02;;;6.30;99.90;;;;;;5053728;28;20040;-91
2022/03/22 07:18:43;;;;;;;29.90;15.63;;;6.40;99.90;;;;;;5035523;28;20485;-91
2022/03/22 07:21:08;;;;;;;28.02;13.73;;;6.50;99.90;;;;;;5053534;28;20495;-91
2022/03/22 07:23:35;;;;;;;22.65;13.02;;;6.70;99.90;;;;;;5053275;28;20108;-91
2022/03/22 07:26:01;;;;;;;25.02;14.10;;;6.80;99.90;;;;;;5035600;28;20028;-91
2022/03/22 07:28:44;;;;;;;31.25;17.20;;;6.90;99.90;;;;;;5053165;28;20047;-91
2022/03/22 07:31:09;;;;;;;27.20;16.10;;;7.00;99.90;;;;;;5035426;28;20032;-92
2022/03/22 07:33:39;;;;;;;40.08;21.35;;;7.00;99.90;;;;;;5053289;28;20029;-92
2022/03/22 07:36:04;;;;;;;54.10;29.08;;;7.10;99.90;;;;;;5053235;28;20071;-90
2022/03/22 07:38:30;;;;;;;69.97;32.63;;;7.20;99.90;;;;;;5059422;28;20139;-91
2022/03/22 07:40:58;;;;;;;61.97;31.63;;;7.30;99.90;;;;;;5073065;28;20028;-91
2022/03/22 07:43:23;;;;;;;58.33;30.08;;;7.40;99.90;;;;;;5072947;28;20519;-91
2022/03/22 07:45:54;;;;;;;59.45;30.23;;;7.40;99.90;;;;;;5055211;28;20158;-91
2022/03/22 07:48:20;;;;;;;53.83;25.60;;;7.60;99.90;;;;;;5055189;28;20031;-91
2022/03/22 07:53:43;;;;;;;104.18;52.92;;;7.80;99.90;;;;;;5073039;28;20027;-91
2022/03/22 07:56:17;;;;;;;105.13;55.83;;;7.90;99.90;;;;;;5072829;28;20040;-91
2022/03/22 07:58:42;;;;;;;97.78;50.25;;;8.10;99.90;;;;;;5072792;28;20238;-91
2022/03/22 08:01:41;;;;;;;77.53;40.20;;;8.10;99.90;;;;;;5073054;28;20028;-92
2022/03/22 08:04:06;;;;;;;57.42;29.15;;;8.20;99.90;;;;;;5054827;28;20361;-91
2022/03/22 08:06:36;;;;;;;51.65;24.35;;;8.30;99.90;;;;;;5073200;28;20074;-92
2022/03/22 08:09:02;;;;;;;41.35;18.88;;;8.20;99.90;;;;;;5054728;28;20429;-91
2022/03/22 08:11:27;;;;;;;34.83;17.27;;;8.30;99.90;;;;;;5072835;28;20063;-92
2022/03/22 08:13:53;;;;;;;31.88;15.50;;;8.40;99.90;;;;;;5072609;28;20107;-91
2022/03/22 08:16:49;;;;;;;24.85;14.55;;;8.40;99.90;;;;;;5055034;28;20469;-91
2022/03/22 08:19:18;;;;;;;29.92;15.32;;;8.40;99.90;;;;;;5054788;28;20021;-91
2022/03/22 08:21:53;;;;;;;30.15;16.40;;;8.40;99.90;;;;;;5054670;28;20066;-92
2022/03/22 08:24:19;;;;;;;38.30;16.95;;;8.40;99.90;;;;;;5072619;28;20033;-92
2022/03/22 08:26:48;;;;;;;36.45;15.13;;;8.50;99.90;;;;;;5072461;28;20033;-91
2022/03/22 08:29:14;;;;;;;36.72;16.15;;;8.50;99.90;;;;;;5054807;28;20017;-92
2022/03/22 08:31:59;;;;;;;29.27;16.02;;;8.50;99.90;;;;;;5072684;28;20020;-92
2022/03/22 08:34:24;;;;;;;24.80;15.30;;;8.60;99.90;;;;;;5054774;28;20074;-91
2022/03/22 08:36:50;;;;;;;32.40;16.80;;;8.60;99.90;;;;;;5054847;28;20020;-91
2022/03/22 08:39:16;;;;;;;31.70;17.67;;;8.70;99.90;;;;;;5054530;28;20378;-92
2022/03/22 08:41:42;;;;;;;32.40;16.13;;;8.70;99.90;;;;;;5072295;28;20033;-92
2022/03/22 08:44:16;;;;;;;25.00;14.88;;;8.80;99.90;;;;;;5072408;28;20029;-91
2022/03/22 08:46:42;;;;;;;28.77;14.63;;;8.80;99.90;;;;;;5054678;28;20027;-92
2022/03/22 08:49:12;;;;;;;31.92;16.80;;;8.90;99.90;;;;;;5054579;28;20407;-91
2022/03/22 08:51:38;;;;;;;26.15;15.38;;;8.90;99.90;;;;;;5058720;28;20020;-91
2022/03/22 08:54:06;;;;;;;29.63;14.73;;;9.00;99.90;;;;;;5076180;28;20032;-92
2022/03/22 08:56:32;;;;;;;25.08;14.73;;;9.00;99.90;;;;;;5058128;28;20029;-91
2022/03/22 08:59:00;;;;;;;37.45;17.88;;;9.10;99.90;;;;;;5076006;28;20016;-92
2022/03/22 09:01:27;;;;;;;37.72;16.20;;;9.20;99.90;;;;;;5076070;28;20492;-92
2022/03/22 09:07:01;;;;;;;42.38;15.85;;;9.40;99.90;;;;;;5076064;28;20503;-91
2022/03/22 09:09:57;;;;;;;29.38;16.05;;;9.50;99.90;;;;;;5058475;28;20017;-92
2022/03/22 09:12:23;;;;;;;34.50;16.95;;;9.60;99.90;;;;;;5075461;28;20017;-91
2022/03/22 09:14:53;;;;;;;33.58;16.60;;;9.70;99.90;;;;;;5057903;28;20038;-92
2022/03/22 09:17:22;;;;;;;35.92;17.67;;;9.80;99.90;;;;;;5057932;28;20055;-91
2022/03/22 09:20:25;;;;;;;32.83;18.33;;;9.90;99.90;;;;;;5075794;28;20104;-92
2022/03/22 09:22:52;;;;;;;32.22;17.48;;;10.00;99.90;;;;;;5057665;28;20425;-91
2022/03/22 09:25:54;;;;;;;43.35;19.25;;;10.10;99.90;;;;;;5048275;28;20146;-91
2022/03/22 09:28:20;;;;;;;30.88;16.90;;;10.20;99.90;;;;;;5039353;28;20148;-91
2022/03/22 09:30:58;;;;;;;37.88;16.40;;;10.30;99.90;;;;;;5055489;28;20048;-91
2022/03/22 09:33:23;;;;;;;32.17;17.55;;;10.40;99.90;;;;;;5055082;28;20028;-91
2022/03/22 09:36:06;;;;;;;29.25;16.85;;;10.50;99.90;;;;;;5055310;28;20025;-91
2022/03/22 09:38:37;;;;;;;29.70;15.55;;;10.70;99.90;;;;;;5043929;28;20052;-92
2022/03/22 09:41:04;;;;;;;25.23;15.25;;;10.80;98.40;;;;;;5057376;28;20035;-88
2022/03/22 09:43:33;;;;;;;24.90;14.57;;;10.90;92.60;;;;;;5052854;28;20036;-89
2022/03/22 09:46:01;;;;;;;28.08;13.65;;;11.00;84.90;;;;;;5071727;28;20491;-91
2022/03/22 09:48:29;;;;;;;24.73;13.82;;;11.10;81.80;;;;;;5075261;28;20059;-91
2022/03/22 09:53:58;;;;;;;25.35;16.40;;;11.40;67.50;;;;;;5075372;28;20023;-94
2022/03/22 09:56:31;;;;;;;21.73;13.55;;;11.40;67.20;;;;;;5056936;28;20029;-90
2022/03/22 09:58:58;;;;;;;23.25;14.63;;;11.60;64.60;;;;;;5057353;28;20108;-92
2022/03/22 10:01:24;;;;;;;28.02;13.18;;;11.70;60.80;;;;;;5056816;28;20455;-93
2022/03/22 10:04:08;;;;;;;26.15;13.73;;;11.90;59.30;;;;;;5055270;28;20063;-91
2022/03/22 10:06:35;;;;;;;25.60;13.43;;;11.90;60.00;;;;;;5055746;28;20021;-93
2022/03/22 10:09:09;;;;;;;24.48;13.75;;;11.90;59.40;;;;;;5049781;28;20496;-93
2022/03/22 10:11:40;;;;;;;28.73;14.02;;;12.00;60.10;;;;;;5036830;28;20037;-90
2022/03/22 10:14:08;;;;;;;26.60;14.25;;;12.10;58.10;;;;;;5055042;28;20060;-92
2022/03/22 10:16:50;;;;;;;23.05;13.93;;;12.20;54.10;;;;;;5037552;28;20120;-93
2022/03/22 10:19:38;;;;;;;21.08;12.85;;;12.30;51.80;;;;;;5037275;28;20057;-93
2022/03/22 10:22:05;;;;;;;20.90;12.52;;;12.40;51.60;;;;;;5037155;28;20031;-92
2022/03/22 10:24:44;;;;;;;24.98;12.77;;;12.50;50.60;;;;;;5054790;28;20052;-91
2022/03/22 10:27:40;;;;;;;23.90;13.75;;;12.50;51.50;;;;;;5054936;28;20025;-93
2022/03/22 10:30:08;;;;;;;24.77;12.43;;;12.70;52.00;;;;;;5036975;28;20020;-91
2022/03/22 10:32:39;;;;;;;26.15;13.38;;;12.70;50.80;;;;;;5036743;28;20025;-92
2022/03/22 10:35:37;;;;;;;21.15;12.85;;;12.80;50.10;;;;;;5037009;28;20056;-91
2022/03/22 10:38:19;;;;;;;22.63;13.60;;;12.90;48.10;;;;;;5054371;28;20045;-93
2022/03/22 10:40:47;;;;;;;20.58;12.27;;;12.90;48.10;;;;;;5036891;28;20027;-91
2022/03/22 10:43:25;;;;;;;22.23;12.50;;;13.00;47.20;;;;;;5036745;28;20071;-93
2022/03/22 10:46:26;;;;;;;18.58;10.85;;;13.10;46.30;;;;;;5036899;28;20079;-92
2022/03/22 10:48:51;;;;;;;19.10;11.93;;;13.20;44.80;;;;;;5054895;28;20156;-92
2022/03/22 10:51:17;;;;;;;21.10;12.40;;;13.20;44.20;;;;;;5036555;28;20060;-91
2022/03/22 10:53:54;;;;;;;20.98;11.32;;;13.30;43.50;;;;;;5036110;28;20476;-92
2022/03/22 10:56:20;;;;;;;21.00;11.65;;;13.30;43.10;;;;;;5053687;28;20104;-93
2022/03/22 10:58:46;;;;;;;22.85;13.15;;;13.40;44.10;;;;;;5061696;28;20115;-92
2022/03/22 11:05:07;;;;;;;20.10;10.80;;;13.50;42.50;;;;;;5094468;28;20023;-91
2022/03/22 11:07:39;;;;;;;20.17;11.38;;;13.60;41.50;;;;;;5076019;28;20052;-91
2022/03/22 11:10:28;;;;;;;20.20;11.85;;;13.70;41.50;;;;;;5066389;28;20040;-90
2022/03/22 11:12:59;;;;;;;15.95;10.35;;;13.70;40.70;;;;;;5092599;28;20179;-90
2022/03/22 11:15:35;;;;;;;19.58;10.23;;;13.70;40.20;;;;;;5085894;28;20075;-90
2022/03/22 11:18:02;;;;;;;21.02;10.93;;;13.70;41.10;;;;;;5055373;28;20025;-90
2022/03/22 11:20:28;;;;;;;22.13;11.40;;;13.80;40.70;;;;;;5055669;28;20028;-90
2022/03/22 11:22:57;;;;;;;18.25;10.38;;;13.80;39.50;;;;;;5055578;28;20498;-89
2022/03/22 11:25:28;;;;;;;24.13;11.00;;;13.90;39.20;;;;;;5072443;28;20060;-90
2022/03/22 11:28:03;;;;;;;21.80;10.48;;;14.00;38.80;;;;;;5071588;28;20036;-90
2022/03/22 11:30:30;;;;;;;20.38;10.57;;;14.10;38.70;;;;;;5055517;28;20016;-88
2022/03/22 11:35:47;;;;;;;16.98;9.77;;;14.20;39.20;;;;;;5072928;28;20059;-89
2022/03/22 11:38:13;;;;;;;17.73;10.18;;;14.30;38.30;;;;;;5068159;28;20041;-89
2022/03/22 11:44:06;;;;;;;13.80;9.57;;;14.40;37.90;;;;;;5052718;28;20032;-88
2022/03/22 11:46:32;;;;;;;19.77;9.10;;;14.50;36.60;;;;;;5058461;28;20024;-91
2022/03/22 11:49:11;;;;;;;19.63;9.40;;;14.50;36.30;;;;;;5053047;28;20578;-89
2022/03/22 11:52:13;;;;;;;18.63;9.85;;;14.60;37.00;;;;;;5069455;28;20036;-88
2022/03/22 11:54:40;;;;;;;15.52;9.77;;;14.80;36.00;;;;;;5072034;28;20016;-88
2022/03/22 11:57:16;;;;;;;13.98;9.35;;;14.80;36.30;;;;;;5053708;28;20389;-89
2022/03/22 11:59:43;;;;;;;14.20;9.63;;;14.80;35.30;;;;;;5035086;28;20029;-88
2022/03/22 12:02:27;;;;;;;20.02;10.13;;;14.80;35.00;;;;;;5052842;28;20024;-91
2022/03/22 12:04:57;;;;;;;14.90;8.50;;;14.90;34.90;;;;;;5035447;28;20036;-88
2022/03/22 12:07:32;;;;;;;13.23;8.88;;;15.00;34.70;;;;;;5052517;28;20025;-88
2022/03/22 12:10:05;;;;;;;26.42;10.43;;;15.10;35.10;;;;;;5052583;28;20405;-88
2022/03/22 12:12:33;;;;;;;12.88;8.30;;;15.20;34.00;;;;;;5052295;28;20032;-89
2022/03/22 12:15:00;;;;;;;13.32;9.15;;;15.20;33.60;;;;;;5035061;28;20040;-88
2022/03/22 12:17:42;;;;;;;19.95;9.30;;;15.30;33.50;;;;;;5052513;28;20543;-88
2022/03/22 12:20:14;;;;;;;17.90;10.32;;;15.30;34.10;;;;;;5052451;28;20406;-88
2022/03/22 12:23:08;;;;;;;18.27;9.77;;;15.40;33.10;;;;;;5052202;28;20500;-87
2022/03/22 12:25:36;;;;;;;15.20;9.43;;;15.50;34.00;;;;;;5056553;28;20025;-88
2022/03/22 12:28:07;;;;;;;24.15;10.27;;;15.50;33.40;;;;;;5056430;28;20500;-88
2022/03/22 12:30:41;;;;;;;16.02;10.70;;;15.60;33.30;;;;;;5056543;28;20497;-88
2022/03/22 12:33:13;;;;;;;13.68;9.05;;;15.70;33.30;;;;;;5056392;28;20017;-87
2022/03/22 12:35:40;;;;;;;17.42;10.80;;;15.70;34.10;;;;;;5056307;28;20025;-89
2022/03/22 12:38:40;;;;;;;14.90;9.73;;;15.70;33.50;;;;;;5042101;28;20045;-88
2022/03/22 12:41:06;;;;;;;20.17;10.50;;;15.80;34.10;;;;;;5075969;28;20025;-88
2022/03/22 12:43:36;;;;;;;15.82;10.18;;;15.90;33.80;;;;;;5058317;28;20067;-87
2022/03/22 12:46:02;;;;;;;22.13;10.27;;;16.10;33.70;;;;;;5074745;28;20115;-87
2022/03/22 12:48:31;;;;;;;17.65;10.23;;;16.20;32.90;;;;;;5076161;28;20051;-88
2022/03/22 12:50:58;;;;;;;15.32;9.23;;;16.30;32.60;;;;;;5076083;28;20016;-88
2022/03/22 12:53:24;;;;;;;17.27;10.52;;;16.40;32.70;;;;;;5057855;28;20032;-87
2022/03/22 12:55:50;;;;;;;15.68;10.07;;;16.30;32.60;;;;;;5075960;28;20025;-86
2022/03/22 12:58:28;;;;;;;21.33;9.80;;;16.40;32.20;;;;;;5074564;28;20029;-88
2022/03/22 13:00:54;;;;;;;18.10;10.32;;;16.40;31.50;;;;;;5075873;28;20060;-88
2022/03/22 13:03:22;;;;;;;22.08;10.60;;;16.40;31.90;;;;;;5075744;28;20063;-88
2022/03/22 13:05:52;;;;;;;19.10;10.52;;;16.40;31.40;;;;;;5075824;28;20021;-88
2022/03/22 13:08:26;;;;;;;22.08;9.30;;;16.40;31.20;;;;;;5058003;28;20016;-88
2022/03/22 13:16:55;;;;;;;15.45;9.95;;;16.50;32.10;;;;;;5055636;28;20036;-88
2022/03/22 13:19:31;;;;;;;17.30;9.20;;;16.50;30.30;;;;;;5055527;28;20417;-91
2022/03/22 13:22:02;;;;;;;;;;;16.50;31.20;;;;;;5056052;28;20381;-88
2022/03/22 13:24:28;;;;;;;28.25;10.73;;;16.60;31.40;;;;;;5055611;28;19911;-88
2022/03/22 13:27:13;;;;;;;17.65;11.07;;;16.70;31.00;;;;;;5055395;28;20100;-88
2022/03/22 13:29:43;;;;;;;28.40;10.77;;;16.70;31.70;;;;;;5072912;28;20103;-87
2022/03/22 13:32:13;;;;;;;16.48;9.98;;;16.80;31.10;;;;;;5057518;28;20027;-88
2022/03/22 13:34:44;;;;;;;15.75;10.07;;;16.90;31.10;;;;;;5070686;28;20039;-88
2022/03/22 13:37:15;;;;;;;16.83;10.23;;;17.10;30.60;;;;;;5074665;28;20020;-87
2022/03/22 13:39:43;;;;;;;25.80;10.35;;;17.20;31.10;;;;;;5038548;28;20051;-87
2022/03/22 13:42:12;;;;;;;21.45;10.48;;;17.30;30.80;;;;;;5035135;28;20022;-87
2022/03/22 13:44:50;;;;;;;16.58;10.00;;;17.40;29.80;;;;;;5073212;28;20499;-88